Isle of Tiree, United Kingdom
Current Conditions -  °F | °C
As of 9:20 AM on Wednesday 28 Jan 2015 (Local Time) from EGPU Reporting Station
Scattered Clouds Scattered Clouds  
Wind Chill: 27°   Ceiling: Unl
Heat Index: 39°   Visibility: 6mi
Dew Point: 30°   Wind: 35mph
Humidity: 70%   Direction: 290°WNW
Pressure: 29.21"   Gusts: 46mph
Location:  56.51°N, 6.81°W
Report Text: EGPU 280920Z 29030G40KT 9999 FEW018 SCT035 04/M01 Q0989
Loading
Personal Weather Stations






























Interactive Weather Map New forecast layout! Learn more

10-Day Weather Forecast

Advertisements
Track Severe Weather on mobile